METAR Data

Data at: 0218 UTC 20 Sep 2020

KOKC 200152Z 16004KT 8SM SCT250 18/13 A3015 RMK AO2 SLP202 FU SCT250 T01780133
KOKC 200052Z 13006KT 8SM SCT250 18/13 A3013 RMK AO2 SLP198 FU SCT250 T01830133
KOKC 192352Z 12005KT 7SM SCT250 22/14 A3013 RMK AO2 SLP197 FU SCT250 T02220139 10256 20222 56007
KOKC 192252Z 13005KT 7SM SCT250 24/12 A3013 RMK AO2 SLP195 FU SCT250 T02440122
KOKC 192152Z 16004KT 8SM SCT250 25/13 A3014 RMK AO2 SLP198 FU SCT250 T02500128
KOKC 192052Z 06004KT 8SM SCT250 25/12 A3016 RMK AO2 SLP201 FU SCT250 T02500122 56023

KOKC 192324Z 2000/2024 14007KT P6SM SKC